sensor_id;sensor_type;location;lat;lon;timestamp;temperature;humidity
45311;SHT31;68264;51.540;5.854;2023-07-28T00:09:07;17.6;97.6
45311;SHT31;68264;51.540;5.854;2023-07-28T00:23:06;17.5;97.5
45311;SHT31;68264;51.540;5.854;2023-07-28T00:37:34;17.6;97.6
45311;SHT31;68264;51.540;5.854;2023-07-28T00:52:22;17.6;97.5
45311;SHT31;68264;51.540;5.854;2023-07-28T01:07:10;17.6;97.6
45311;SHT31;68264;51.540;5.854;2023-07-28T01:21:30;17.6;97.5
45311;SHT31;68264;51.540;5.854;2023-07-28T01:35:29;17.6;97.4
45311;SHT31;68264;51.540;5.854;2023-07-28T01:51:33;17.7;97.2
45311;SHT31;68264;51.540;5.854;2023-07-28T02:08:02;17.7;97.1
45311;SHT31;68264;51.540;5.854;2023-07-28T02:22:22;17.7;97.2
45311;SHT31;68264;51.540;5.854;2023-07-28T02:36:50;17.7;97.2
45311;SHT31;68264;51.540;5.854;2023-07-28T03:05:37;17.7;97.1
45311;SHT31;68264;51.540;5.854;2023-07-28T03:21:29;17.8;96.8
45311;SHT31;68264;51.540;5.854;2023-07-28T03:36:59;17.7;96.8
45311;SHT31;68264;51.540;5.854;2023-07-28T03:51:27;17.7;96.7
45311;SHT31;68264;51.540;5.854;2023-07-28T04:06:16;17.8;96.9
45311;SHT31;68264;51.540;5.854;2023-07-28T04:20:35;17.8;96.8
45311;SHT31;68264;51.540;5.854;2023-07-28T04:35:03;17.8;96.4
45311;SHT31;68264;51.540;5.854;2023-07-28T04:49:22;17.8;96.2
45311;SHT31;68264;51.540;5.854;2023-07-28T05:03:22;17.9;95.6
45311;SHT31;68264;51.540;5.854;2023-07-28T05:17:21;18.0;95.5
45311;SHT31;68264;51.540;5.854;2023-07-28T05:31:20;18.0;95.5
45311;SHT31;68264;51.540;5.854;2023-07-28T05:45:19;18.0;95.8
45311;SHT31;68264;51.540;5.854;2023-07-28T05:59:18;18.1;95.9
45311;SHT31;68264;51.540;5.854;2023-07-28T06:14:18;18.3;95.4
45311;SHT31;68264;51.540;5.854;2023-07-28T06:29:47;18.4;95.3
45311;SHT31;68264;51.540;5.854;2023-07-28T06:44:35;18.5;94.9
45311;SHT31;68264;51.540;5.854;2023-07-28T06:58:54;18.7;94.5
45311;SHT31;68264;51.540;5.854;2023-07-28T07:12:53;18.8;94.5
45311;SHT31;68264;51.540;5.854;2023-07-28T07:27:21;18.8;94.3
45311;SHT31;68264;51.540;5.854;2023-07-28T07:41:41;19.1;94.1
45311;SHT31;68264;51.540;5.854;2023-07-28T07:55:40;19.3;93.3
45311;SHT31;68264;51.540;5.854;2023-07-28T08:09:39;19.4;92.6
45311;SHT31;68264;51.540;5.854;2023-07-28T08:24:07;19.0;93.2
45311;SHT31;68264;51.540;5.854;2023-07-28T08:38:26;19.1;92.9
45311;SHT31;68264;51.540;5.854;2023-07-28T08:52:54;19.4;92.1
45311;SHT31;68264;51.540;5.854;2023-07-28T09:07:42;19.5;91.5
45311;SHT31;68264;51.540;5.854;2023-07-28T09:23:03;20.1;90.5
45311;SHT31;68264;51.540;5.854;2023-07-28T09:38:02;20.0;89.8
45311;SHT31;68264;51.540;5.854;2023-07-28T09:52:02;20.6;86.9
45311;SHT31;68264;51.540;5.854;2023-07-28T10:06:01;21.0;85.9
45311;SHT31;68264;51.540;5.854;2023-07-28T10:21:01;21.2;85.9
45311;SHT31;68264;51.540;5.854;2023-07-28T10:36:29;21.0;87.4
45311;SHT31;68264;51.540;5.854;2023-07-28T10:50:49;21.7;83.2
45311;SHT31;68264;51.540;5.854;2023-07-28T11:04:48;22.1;83.4
45311;SHT31;68264;51.540;5.854;2023-07-28T11:18:47;22.6;78.1
45311;SHT31;68264;51.540;5.854;2023-07-28T11:32:46;23.7;76.3
45311;SHT31;68264;51.540;5.854;2023-07-28T11:46:45;22.9;74.6
45311;SHT31;68264;51.540;5.854;2023-07-28T12:01:13;23.2;75.6
45311;SHT31;68264;51.540;5.854;2023-07-28T12:16:01;23.5;73.3
45311;SHT31;68264;51.540;5.854;2023-07-28T12:30:21;23.3;74.2
45311;SHT31;68264;51.540;5.854;2023-07-28T12:45:21;23.2;70.7
45311;SHT31;68264;51.540;5.854;2023-07-28T13:00:50;23.1;74.1
45311;SHT31;68264;51.540;5.854;2023-07-28T13:15:09;23.3;74.1
45311;SHT31;68264;51.540;5.854;2023-07-28T13:29:08;23.7;73.5
45311;SHT31;68264;51.540;5.854;2023-07-28T13:43:07;23.6;74.0
45311;SHT31;68264;51.540;5.854;2023-07-28T13:57:35;23.5;74.7
45311;SHT31;68264;51.540;5.854;2023-07-28T14:11:54;24.1;72.4
45311;SHT31;68264;51.540;5.854;2023-07-28T14:27:58;23.7;69.8
45311;SHT31;68264;51.540;5.854;2023-07-28T14:45:00;23.1;73.5
45311;SHT31;68264;51.540;5.854;2023-07-28T14:59:59;22.7;73.7
45311;SHT31;68264;51.540;5.854;2023-07-28T15:14:28;23.8;75.5
45311;SHT31;68264;51.540;5.854;2023-07-28T15:29:48;23.3;72.5
45311;SHT31;68264;51.540;5.854;2023-07-28T15:45:17;23.4;73.7
45311;SHT31;68264;51.540;5.854;2023-07-28T15:59:36;22.7;73.3
45311;SHT31;68264;51.540;5.854;2023-07-28T16:13:35;22.7;74.7
45311;SHT31;68264;51.540;5.854;2023-07-28T16:27:34;22.7;74.5
45311;SHT31;68264;51.540;5.854;2023-07-28T16:41:33;22.6;69.0
45311;SHT31;68264;51.540;5.854;2023-07-28T16:55:32;22.5;70.3
45311;SHT31;68264;51.540;5.854;2023-07-28T17:09:31;22.5;70.8
45311;SHT31;68264;51.540;5.854;2023-07-28T17:23:30;22.8;70.6
45311;SHT31;68264;51.540;5.854;2023-07-28T17:37:59;22.9;71.5
45311;SHT31;68264;51.540;5.854;2023-07-28T17:52:18;23.1;70.7
45311;SHT31;68264;51.540;5.854;2023-07-28T18:06:17;23.2;70.8
45311;SHT31;68264;51.540;5.854;2023-07-28T18:21:17;23.7;70.7
45311;SHT31;68264;51.540;5.854;2023-07-28T18:36:17;24.5;69.8
45311;SHT31;68264;51.540;5.854;2023-07-28T18:50:16;24.2;71.2
45311;SHT31;68264;51.540;5.854;2023-07-28T19:04:15;23.5;71.9
45311;SHT31;68264;51.540;5.854;2023-07-28T19:18:14;22.6;75.5
45311;SHT31;68264;51.540;5.854;2023-07-28T19:32:13;21.5;78.2
45311;SHT31;68264;51.540;5.854;2023-07-28T19:46:41;21.0;79.6
45311;SHT31;68264;51.540;5.854;2023-07-28T20:01:00;20.4;81.6
45311;SHT31;68264;51.540;5.854;2023-07-28T20:14:59;20.1;82.4
45311;SHT31;68264;51.540;5.854;2023-07-28T20:28:58;20.0;83.1
45311;SHT31;68264;51.540;5.854;2023-07-28T20:42:57;19.9;83.3
45311;SHT31;68264;51.540;5.854;2023-07-28T20:56:56;20.0;83.7
45311;SHT31;68264;51.540;5.854;2023-07-28T21:10:55;19.9;84.3
45311;SHT31;68264;51.540;5.854;2023-07-28T21:25:55;19.8;85.0
45311;SHT31;68264;51.540;5.854;2023-07-28T21:41:56;19.7;86.4
45311;SHT31;68264;51.540;5.854;2023-07-28T21:56:56;19.8;86.8
45311;SHT31;68264;51.540;5.854;2023-07-28T22:11:24;19.7;88.0
